sensor_id;sensor_type;location;lat;lon;timestamp;P1;durP1;ratioP1;P2;durP2;ratioP2
81950;SDS011;71452;52.562;5.642;2024-03-29T00:01:37;2.92;;;0.30;;
81950;SDS011;71452;52.562;5.642;2024-03-29T00:04:04;2.45;;;0.30;;
81950;SDS011;71452;52.562;5.642;2024-03-29T00:06:30;2.78;;;0.30;;
81950;SDS011;71452;52.562;5.642;2024-03-29T00:08:57;3.55;;;0.20;;
81950;SDS011;71452;52.562;5.642;2024-03-29T00:11:24;1.38;;;0.52;;
81950;SDS011;71452;52.562;5.642;2024-03-29T00:13:50;2.25;;;0.20;;
81950;SDS011;71452;52.562;5.642;2024-03-29T00:16:19;1.08;;;0.30;;
81950;SDS011;71452;52.562;5.642;2024-03-29T00:18:46;1.90;;;0.25;;
81950;SDS011;71452;52.562;5.642;2024-03-29T00:21:13;0.17;;;0.10;;
81950;SDS011;71452;52.562;5.642;2024-03-29T00:23:40;1.35;;;0.30;;
81950;SDS011;71452;52.562;5.642;2024-03-29T00:26:06;0.75;;;0.30;;
81950;SDS011;71452;52.562;5.642;2024-03-29T00:28:33;0.60;;;0.38;;
81950;SDS011;71452;52.562;5.642;2024-03-29T00:30:59;1.35;;;0.32;;
81950;SDS011;71452;52.562;5.642;2024-03-29T00:33:28;1.33;;;0.20;;
81950;SDS011;71452;52.562;5.642;2024-03-29T00:35:55;2.63;;;0.25;;
81950;SDS011;71452;52.562;5.642;2024-03-29T00:38:22;0.98;;;0.47;;
81950;SDS011;71452;52.562;5.642;2024-03-29T00:40:48;1.48;;;0.35;;
81950;SDS011;71452;52.562;5.642;2024-03-29T00:43:15;2.15;;;0.20;;
81950;SDS011;71452;52.562;5.642;2024-03-29T00:45:41;1.48;;;0.13;;
81950;SDS011;71452;52.562;5.642;2024-03-29T00:48:08;0.93;;;0.15;;
81950;SDS011;71452;52.562;5.642;2024-03-29T00:50:37;0.38;;;0.13;;
81950;SDS011;71452;52.562;5.642;2024-03-29T00:53:04;2.92;;;0.57;;
81950;SDS011;71452;52.562;5.642;2024-03-29T00:55:30;4.10;;;0.57;;
81950;SDS011;71452;52.562;5.642;2024-03-29T00:57:57;0.25;;;0.10;;
81950;SDS011;71452;52.562;5.642;2024-03-29T01:00:23;2.55;;;0.40;;
81950;SDS011;71452;52.562;5.642;2024-03-29T01:02:50;3.50;;;0.17;;
81950;SDS011;71452;52.562;5.642;2024-03-29T01:05:16;2.63;;;0.43;;
81950;SDS011;71452;52.562;5.642;2024-03-29T01:07:45;1.80;;;0.20;;
81950;SDS011;71452;52.562;5.642;2024-03-29T01:10:12;1.25;;;0.40;;
81950;SDS011;71452;52.562;5.642;2024-03-29T01:12:39;2.83;;;0.60;;
81950;SDS011;71452;52.562;5.642;2024-03-29T01:15:05;3.15;;;0.30;;
81950;SDS011;71452;52.562;5.642;2024-03-29T01:17:32;1.88;;;0.20;;
81950;SDS011;71452;52.562;5.642;2024-03-29T01:19:59;2.35;;;0.32;;
81950;SDS011;71452;52.562;5.642;2024-03-29T01:22:25;0.77;;;0.10;;
81950;SDS011;71452;52.562;5.642;2024-03-29T01:24:55;2.17;;;0.15;;
81950;SDS011;71452;52.562;5.642;2024-03-29T01:27:21;6.13;;;0.57;;
81950;SDS011;71452;52.562;5.642;2024-03-29T01:29:48;1.25;;;0.13;;
81950;SDS011;71452;52.562;5.642;2024-03-29T01:32:14;1.02;;;0.73;;
81950;SDS011;71452;52.562;5.642;2024-03-29T01:34:41;1.85;;;0.38;;
81950;SDS011;71452;52.562;5.642;2024-03-29T01:37:07;4.22;;;0.32;;
81950;SDS011;71452;52.562;5.642;2024-03-29T01:39:34;0.98;;;0.28;;
81950;SDS011;71452;52.562;5.642;2024-03-29T01:42:03;1.95;;;0.20;;
81950;SDS011;71452;52.562;5.642;2024-03-29T01:44:30;1.25;;;0.10;;
81950;SDS011;71452;52.562;5.642;2024-03-29T01:46:57;1.10;;;0.25;;
81950;SDS011;71452;52.562;5.642;2024-03-29T01:49:23;0.77;;;0.47;;
81950;SDS011;71452;52.562;5.642;2024-03-29T01:51:50;0.88;;;0.20;;
81950;SDS011;71452;52.562;5.642;2024-03-29T01:54:17;1.23;;;0.43;;
81950;SDS011;71452;52.562;5.642;2024-03-29T01:56:45;1.80;;;0.40;;
81950;SDS011;71452;52.562;5.642;2024-03-29T01:59:16;1.85;;;0.35;;
81950;SDS011;71452;52.562;5.642;2024-03-29T02:01:44;0.70;;;0.13;;
81950;SDS011;71452;52.562;5.642;2024-03-29T02:06:38;1.65;;;0.32;;
81950;SDS011;71452;52.562;5.642;2024-03-29T02:09:05;0.50;;;0.10;;
81950;SDS011;71452;52.562;5.642;2024-03-29T02:11:31;3.30;;;0.43;;
81950;SDS011;71452;52.562;5.642;2024-03-29T02:13:58;0.35;;;0.17;;
81950;SDS011;71452;52.562;5.642;2024-03-29T02:16:27;4.68;;;0.28;;
81950;SDS011;71452;52.562;5.642;2024-03-29T02:18:54;2.38;;;0.30;;
81950;SDS011;71452;52.562;5.642;2024-03-29T02:21:20;1.80;;;0.30;;
81950;SDS011;71452;52.562;5.642;2024-03-29T02:23:47;5.70;;;0.68;;
81950;SDS011;71452;52.562;5.642;2024-03-29T02:26:23;2.05;;;0.52;;
81950;SDS011;71452;52.562;5.642;2024-03-29T02:31:16;0.50;;;0.50;;
81950;SDS011;71452;52.562;5.642;2024-03-29T02:33:43;0.75;;;0.20;;
81950;SDS011;71452;52.562;5.642;2024-03-29T02:36:10;0.20;;;0.10;;
81950;SDS011;71452;52.562;5.642;2024-03-29T02:38:36;0.22;;;0.15;;
81950;SDS011;71452;52.562;5.642;2024-03-29T02:41:05;0.47;;;0.20;;
81950;SDS011;71452;52.562;5.642;2024-03-29T02:43:32;0.57;;;0.10;;
81950;SDS011;71452;52.562;5.642;2024-03-29T02:45:58;0.55;;;0.10;;
81950;SDS011;71452;52.562;5.642;2024-03-29T02:48:25;1.95;;;0.35;;
81950;SDS011;71452;52.562;5.642;2024-03-29T02:50:52;1.45;;;0.20;;
81950;SDS011;71452;52.562;5.642;2024-03-29T02:53:18;1.50;;;0.30;;
81950;SDS011;71452;52.562;5.642;2024-03-29T02:55:45;0.80;;;0.30;;
81950;SDS011;71452;52.562;5.642;2024-03-29T02:58:14;0.25;;;0.10;;
81950;SDS011;71452;52.562;5.642;2024-03-29T03:00:40;1.75;;;0.15;;
81950;SDS011;71452;52.562;5.642;2024-03-29T03:03:07;1.65;;;0.40;;
81950;SDS011;71452;52.562;5.642;2024-03-29T03:05:33;1.95;;;0.13;;
81950;SDS011;71452;52.562;5.642;2024-03-29T03:08:00;0.60;;;0.22;;
81950;SDS011;71452;52.562;5.642;2024-03-29T03:10:44;1.27;;;0.30;;
81950;SDS011;71452;52.562;5.642;2024-03-29T03:13:28;0.17;;;0.00;;
81950;SDS011;71452;52.562;5.642;2024-03-29T03:15:55;0.70;;;0.03;;
81950;SDS011;71452;52.562;5.642;2024-03-29T03:18:22;0.95;;;0.17;;
81950;SDS011;71452;52.562;5.642;2024-03-29T03:20:52;0.43;;;0.22;;
81950;SDS011;71452;52.562;5.642;2024-03-29T03:23:18;1.50;;;0.20;;
81950;SDS011;71452;52.562;5.642;2024-03-29T03:25:46;0.35;;;0.15;;
81950;SDS011;71452;52.562;5.642;2024-03-29T03:30:47;2.88;;;0.32;;
81950;SDS011;71452;52.562;5.642;2024-03-29T03:33:14;2.92;;;0.20;;
81950;SDS011;71452;52.562;5.642;2024-03-29T03:35:41;1.52;;;0.20;;
81950;SDS011;71452;52.562;5.642;2024-03-29T03:38:08;2.13;;;0.32;;
81950;SDS011;71452;52.562;5.642;2024-03-29T03:40:34;2.60;;;0.13;;
81950;SDS011;71452;52.562;5.642;2024-03-29T03:43:01;0.52;;;0.08;;
81950;SDS011;71452;52.562;5.642;2024-03-29T03:45:28;0.57;;;0.17;;
81950;SDS011;71452;52.562;5.642;2024-03-29T03:47:57;0.88;;;0.10;;
81950;SDS011;71452;52.562;5.642;2024-03-29T03:50:23;0.52;;;0.10;;
81950;SDS011;71452;52.562;5.642;2024-03-29T03:52:50;5.57;;;0.45;;
81950;SDS011;71452;52.562;5.642;2024-03-29T03:55:17;1.55;;;0.20;;
81950;SDS011;71452;52.562;5.642;2024-03-29T03:57:43;2.10;;;0.52;;
81950;SDS011;71452;52.562;5.642;2024-03-29T04:00:10;0.38;;;0.10;;
81950;SDS011;71452;52.562;5.642;2024-03-29T04:02:38;1.67;;;0.28;;
81950;SDS011;71452;52.562;5.642;2024-03-29T04:05:08;0.10;;;0.05;;
81950;SDS011;71452;52.562;5.642;2024-03-29T04:07:34;0.20;;;0.13;;
81950;SDS011;71452;52.562;5.642;2024-03-29T04:10:01;1.60;;;0.43;;
81950;SDS011;71452;52.562;5.642;2024-03-29T04:12:28;0.32;;;0.15;;
81950;SDS011;71452;52.562;5.642;2024-03-29T04:14:54;2.13;;;0.25;;
81950;SDS011;71452;52.562;5.642;2024-03-29T04:17:22;1.15;;;0.50;;
81950;SDS011;71452;52.562;5.642;2024-03-29T04:19:49;1.70;;;0.15;;
81950;SDS011;71452;52.562;5.642;2024-03-29T04:22:18;0.10;;;0.05;;
81950;SDS011;71452;52.562;5.642;2024-03-29T04:24:44;1.65;;;0.70;;
81950;SDS011;71452;52.562;5.642;2024-03-29T04:27:11;1.25;;;0.10;;
81950;SDS011;71452;52.562;5.642;2024-03-29T04:29:37;0.43;;;0.03;;
81950;SDS011;71452;52.562;5.642;2024-03-29T04:32:04;1.00;;;0.10;;
81950;SDS011;71452;52.562;5.642;2024-03-29T04:34:31;2.70;;;0.22;;
81950;SDS011;71452;52.562;5.642;2024-03-29T04:36:59;0.80;;;0.17;;
81950;SDS011;71452;52.562;5.642;2024-03-29T04:39:28;0.10;;;0.10;;
81950;SDS011;71452;52.562;5.642;2024-03-29T04:41:55;2.28;;;0.00;;
81950;SDS011;71452;52.562;5.642;2024-03-29T04:44:24;2.63;;;0.20;;
81950;SDS011;71452;52.562;5.642;2024-03-29T04:46:52;0.85;;;0.17;;
81950;SDS011;71452;52.562;5.642;2024-03-29T04:49:19;0.20;;;0.10;;
81950;SDS011;71452;52.562;5.642;2024-03-29T04:51:48;1.30;;;0.32;;
81950;SDS011;71452;52.562;5.642;2024-03-29T04:54:14;1.38;;;0.30;;
81950;SDS011;71452;52.562;5.642;2024-03-29T04:56:44;0.73;;;0.17;;
81950;SDS011;71452;52.562;5.642;2024-03-29T04:59:11;0.05;;;0.00;;
81950;SDS011;71452;52.562;5.642;2024-03-29T05:01:37;2.38;;;0.30;;
81950;SDS011;71452;52.562;5.642;2024-03-29T05:04:04;2.05;;;0.17;;
81950;SDS011;71452;52.562;5.642;2024-03-29T05:06:31;0.40;;;0.20;;
81950;SDS011;71452;52.562;5.642;2024-03-29T05:08:58;1.60;;;0.08;;
81950;SDS011;71452;52.562;5.642;2024-03-29T05:11:24;1.05;;;0.10;;
81950;SDS011;71452;52.562;5.642;2024-03-29T05:13:54;0.17;;;0.17;;
81950;SDS011;71452;52.562;5.642;2024-03-29T05:16:20;0.25;;;0.10;;
81950;SDS011;71452;52.562;5.642;2024-03-29T05:18:47;0.40;;;0.10;;
81950;SDS011;71452;52.562;5.642;2024-03-29T05:21:14;1.05;;;0.00;;
81950;SDS011;71452;52.562;5.642;2024-03-29T05:23:40;0.08;;;0.00;;
81950;SDS011;71452;52.562;5.642;2024-03-29T05:26:07;0.85;;;0.10;;
81950;SDS011;71452;52.562;5.642;2024-03-29T05:28:33;0.22;;;0.22;;
81950;SDS011;71452;52.562;5.642;2024-03-29T05:31:11;0.65;;;0.38;;
81950;SDS011;71452;52.562;5.642;2024-03-29T05:33:39;0.20;;;0.10;;
81950;SDS011;71452;52.562;5.642;2024-03-29T05:36:06;0.20;;;0.10;;
81950;SDS011;71452;52.562;5.642;2024-03-29T05:38:32;1.58;;;0.20;;
81950;SDS011;71452;52.562;5.642;2024-03-29T05:40:59;0.95;;;0.10;;
81950;SDS011;71452;52.562;5.642;2024-03-29T05:43:25;1.83;;;0.30;;
81950;SDS011;71452;52.562;5.642;2024-03-29T05:45:52;1.38;;;0.20;;
81950;SDS011;71452;52.562;5.642;2024-03-29T05:48:21;0.32;;;0.10;;
81950;SDS011;71452;52.562;5.642;2024-03-29T05:50:48;0.10;;;0.00;;
81950;SDS011;71452;52.562;5.642;2024-03-29T05:53:14;0.60;;;0.10;;
81950;SDS011;71452;52.562;5.642;2024-03-29T05:55:41;3.25;;;0.15;;
81950;SDS011;71452;52.562;5.642;2024-03-29T05:58:07;0.63;;;0.08;;
81950;SDS011;71452;52.562;5.642;2024-03-29T06:00:34;0.65;;;0.10;;
81950;SDS011;71452;52.562;5.642;2024-03-29T06:03:01;2.90;;;0.22;;
81950;SDS011;71452;52.562;5.642;2024-03-29T06:05:30;0.43;;;0.10;;
81950;SDS011;71452;52.562;5.642;2024-03-29T06:07:57;0.98;;;0.00;;
81950;SDS011;71452;52.562;5.642;2024-03-29T06:10:23;2.15;;;0.10;;
81950;SDS011;71452;52.562;5.642;2024-03-29T06:12:50;1.35;;;0.10;;
81950;SDS011;71452;52.562;5.642;2024-03-29T06:15:17;0.20;;;0.10;;
81950;SDS011;71452;52.562;5.642;2024-03-29T06:17:58;1.48;;;0.10;;
81950;SDS011;71452;52.562;5.642;2024-03-29T06:20:25;0.40;;;0.10;;
81950;SDS011;71452;52.562;5.642;2024-03-29T06:22:54;0.10;;;0.08;;
81950;SDS011;71452;52.562;5.642;2024-03-29T06:25:20;0.20;;;0.10;;
81950;SDS011;71452;52.562;5.642;2024-03-29T06:27:47;1.65;;;0.20;;
81950;SDS011;71452;52.562;5.642;2024-03-29T06:30:14;0.40;;;0.10;;
81950;SDS011;71452;52.562;5.642;2024-03-29T06:32:41;0.80;;;0.25;;
81950;SDS011;71452;52.562;5.642;2024-03-29T06:35:08;0.28;;;0.05;;
81950;SDS011;71452;52.562;5.642;2024-03-29T06:37:35;0.88;;;0.10;;
81950;SDS011;71452;52.562;5.642;2024-03-29T06:40:04;1.17;;;0.28;;
81950;SDS011;71452;52.562;5.642;2024-03-29T06:42:32;1.33;;;0.13;;
81950;SDS011;71452;52.562;5.642;2024-03-29T06:44:58;0.10;;;0.10;;
81950;SDS011;71452;52.562;5.642;2024-03-29T06:47:27;0.88;;;0.22;;
81950;SDS011;71452;52.562;5.642;2024-03-29T06:49:54;0.17;;;0.00;;
81950;SDS011;71452;52.562;5.642;2024-03-29T06:52:20;1.33;;;0.13;;
81950;SDS011;71452;52.562;5.642;2024-03-29T06:54:47;0.73;;;0.30;;
81950;SDS011;71452;52.562;5.642;2024-03-29T06:57:16;0.10;;;0.10;;
81950;SDS011;71452;52.562;5.642;2024-03-29T06:59:43;0.20;;;0.00;;
81950;SDS011;71452;52.562;5.642;2024-03-29T07:02:09;0.15;;;0.10;;
81950;SDS011;71452;52.562;5.642;2024-03-29T07:04:36;1.08;;;0.08;;
81950;SDS011;71452;52.562;5.642;2024-03-29T07:07:03;0.20;;;0.17;;
81950;SDS011;71452;52.562;5.642;2024-03-29T07:09:29;0.20;;;0.13;;
81950;SDS011;71452;52.562;5.642;2024-03-29T07:11:56;4.55;;;0.20;;
81950;SDS011;71452;52.562;5.642;2024-03-29T07:14:25;1.27;;;0.28;;
81950;SDS011;71452;52.562;5.642;2024-03-29T07:16:52;0.60;;;0.28;;
81950;SDS011;71452;52.562;5.642;2024-03-29T07:19:19;1.25;;;0.15;;
81950;SDS011;71452;52.562;5.642;2024-03-29T07:21:46;0.40;;;0.10;;
81950;SDS011;71452;52.562;5.642;2024-03-29T07:24:12;0.15;;;0.08;;
81950;SDS011;71452;52.562;5.642;2024-03-29T07:26:39;1.50;;;0.10;;
81950;SDS011;71452;52.562;5.642;2024-03-29T07:29:06;0.88;;;0.00;;
81950;SDS011;71452;52.562;5.642;2024-03-29T07:31:35;1.45;;;0.10;;
81950;SDS011;71452;52.562;5.642;2024-03-29T07:34:01;0.00;;;0.00;;
81950;SDS011;71452;52.562;5.642;2024-03-29T07:36:28;5.93;;;0.15;;
81950;SDS011;71452;52.562;5.642;2024-03-29T07:38:57;0.80;;;0.10;;
81950;SDS011;71452;52.562;5.642;2024-03-29T07:41:24;0.57;;;0.00;;
81950;SDS011;71452;52.562;5.642;2024-03-29T07:43:51;1.10;;;0.22;;
81950;SDS011;71452;52.562;5.642;2024-03-29T07:46:18;0.75;;;0.10;;
81950;SDS011;71452;52.562;5.642;2024-03-29T07:48:47;0.03;;;0.03;;
81950;SDS011;71452;52.562;5.642;2024-03-29T07:51:14;0.25;;;0.05;;
81950;SDS011;71452;52.562;5.642;2024-03-29T07:53:40;0.10;;;0.10;;
81950;SDS011;71452;52.562;5.642;2024-03-29T07:56:07;0.65;;;0.10;;
81950;SDS011;71452;52.562;5.642;2024-03-29T07:58:34;0.90;;;0.20;;
81950;SDS011;71452;52.562;5.642;2024-03-29T08:01:00;2.08;;;0.10;;
81950;SDS011;71452;52.562;5.642;2024-03-29T08:03:27;0.45;;;0.15;;
81950;SDS011;71452;52.562;5.642;2024-03-29T08:05:59;0.20;;;0.20;;
81950;SDS011;71452;52.562;5.642;2024-03-29T08:08:28;2.65;;;0.20;;
81950;SDS011;71452;52.562;5.642;2024-03-29T08:10:54;0.57;;;0.03;;
81950;SDS011;71452;52.562;5.642;2024-03-29T08:13:21;1.45;;;0.28;;
81950;SDS011;71452;52.562;5.642;2024-03-29T08:15:47;0.45;;;0.30;;
81950;SDS011;71452;52.562;5.642;2024-03-29T08:18:14;0.20;;;0.00;;
81950;SDS011;71452;52.562;5.642;2024-03-29T08:20:41;1.38;;;0.20;;
81950;SDS011;71452;52.562;5.642;2024-03-29T08:23:10;0.40;;;0.17;;
81950;SDS011;71452;52.562;5.642;2024-03-29T08:25:37;0.20;;;0.10;;
81950;SDS011;71452;52.562;5.642;2024-03-29T08:28:04;0.30;;;0.10;;
81950;SDS011;71452;52.562;5.642;2024-03-29T08:30:30;0.28;;;0.13;;
81950;SDS011;71452;52.562;5.642;2024-03-29T08:32:57;0.52;;;0.00;;
81950;SDS011;71452;52.562;5.642;2024-03-29T08:35:23;0.08;;;0.08;;
81950;SDS011;71452;52.562;5.642;2024-03-29T08:37:50;0.47;;;0.10;;
81950;SDS011;71452;52.562;5.642;2024-03-29T08:40:19;0.32;;;0.03;;
81950;SDS011;71452;52.562;5.642;2024-03-29T08:42:47;0.85;;;0.10;;
81950;SDS011;71452;52.562;5.642;2024-03-29T08:45:14;0.30;;;0.13;;
81950;SDS011;71452;52.562;5.642;2024-03-29T08:47:40;0.55;;;0.10;;
81950;SDS011;71452;52.562;5.642;2024-03-29T08:50:07;0.77;;;0.30;;
81950;SDS011;71452;52.562;5.642;2024-03-29T08:52:34;0.20;;;0.10;;
81950;SDS011;71452;52.562;5.642;2024-03-29T08:55:01;0.10;;;0.03;;
81950;SDS011;71452;52.562;5.642;2024-03-29T08:57:30;0.20;;;0.00;;
81950;SDS011;71452;52.562;5.642;2024-03-29T08:59:57;0.10;;;0.10;;
81950;SDS011;71452;52.562;5.642;2024-03-29T09:02:23;0.43;;;0.10;;
81950;SDS011;71452;52.562;5.642;2024-03-29T09:04:50;0.40;;;0.10;;
81950;SDS011;71452;52.562;5.642;2024-03-29T09:07:17;0.40;;;0.10;;
81950;SDS011;71452;52.562;5.642;2024-03-29T09:09:43;0.10;;;0.00;;
81950;SDS011;71452;52.562;5.642;2024-03-29T09:12:10;0.45;;;0.30;;
81950;SDS011;71452;52.562;5.642;2024-03-29T09:14:39;0.32;;;0.13;;
81950;SDS011;71452;52.562;5.642;2024-03-29T09:17:05;0.20;;;0.00;;
81950;SDS011;71452;52.562;5.642;2024-03-29T09:19:32;0.47;;;0.03;;
81950;SDS011;71452;52.562;5.642;2024-03-29T09:21:59;0.10;;;0.10;;
81950;SDS011;71452;52.562;5.642;2024-03-29T09:24:25;0.00;;;0.00;;
81950;SDS011;71452;52.562;5.642;2024-03-29T09:26:52;1.25;;;0.10;;
81950;SDS011;71452;52.562;5.642;2024-03-29T09:29:18;0.20;;;0.00;;
81950;SDS011;71452;52.562;5.642;2024-03-29T09:31:48;0.25;;;0.17;;
81950;SDS011;71452;52.562;5.642;2024-03-29T09:34:14;0.43;;;0.00;;
81950;SDS011;71452;52.562;5.642;2024-03-29T09:36:41;0.25;;;0.20;;
81950;SDS011;71452;52.562;5.642;2024-03-29T09:39:07;0.50;;;0.50;;
81950;SDS011;71452;52.562;5.642;2024-03-29T09:41:34;3.35;;;0.10;;
81950;SDS011;71452;52.562;5.642;2024-03-29T09:44:04;1.17;;;0.20;;
81950;SDS011;71452;52.562;5.642;2024-03-29T09:46:33;0.20;;;0.10;;
81950;SDS011;71452;52.562;5.642;2024-03-29T09:49:02;0.20;;;0.13;;
81950;SDS011;71452;52.562;5.642;2024-03-29T09:51:30;0.50;;;0.13;;
81950;SDS011;71452;52.562;5.642;2024-03-29T09:56:24;0.43;;;0.28;;
81950;SDS011;71452;52.562;5.642;2024-03-29T09:58:52;1.75;;;0.38;;
81950;SDS011;71452;52.562;5.642;2024-03-29T10:01:18;2.33;;;0.57;;
81950;SDS011;71452;52.562;5.642;2024-03-29T10:03:48;0.05;;;0.03;;
81950;SDS011;71452;52.562;5.642;2024-03-29T10:06:18;2.53;;;0.17;;
81950;SDS011;71452;52.562;5.642;2024-03-29T10:08:45;0.10;;;0.05;;
81950;SDS011;71452;52.562;5.642;2024-03-29T10:11:12;0.30;;;0.10;;
81950;SDS011;71452;52.562;5.642;2024-03-29T10:13:41;0.25;;;0.10;;
81950;SDS011;71452;52.562;5.642;2024-03-29T10:16:07;1.50;;;0.10;;
81950;SDS011;71452;52.562;5.642;2024-03-29T10:18:35;0.22;;;0.20;;
81950;SDS011;71452;52.562;5.642;2024-03-29T10:21:02;0.28;;;0.13;;
81950;SDS011;71452;52.562;5.642;2024-03-29T10:23:33;1.63;;;0.20;;
81950;SDS011;71452;52.562;5.642;2024-03-29T10:26:00;0.35;;;0.30;;
81950;SDS011;71452;52.562;5.642;2024-03-29T10:28:29;0.98;;;0.20;;
81950;SDS011;71452;52.562;5.642;2024-03-29T10:30:57;0.47;;;0.00;;
81950;SDS011;71452;52.562;5.642;2024-03-29T10:33:27;1.42;;;0.30;;
81950;SDS011;71452;52.562;5.642;2024-03-29T10:35:55;0.38;;;0.10;;
81950;SDS011;71452;52.562;5.642;2024-03-29T10:38:22;1.15;;;0.43;;
81950;SDS011;71452;52.562;5.642;2024-03-29T10:40:52;0.65;;;0.10;;
81950;SDS011;71452;52.562;5.642;2024-03-29T10:43:19;2.35;;;0.60;;
81950;SDS011;71452;52.562;5.642;2024-03-29T10:45:47;0.63;;;0.52;;
81950;SDS011;71452;52.562;5.642;2024-03-29T10:48:14;0.10;;;0.10;;
81950;SDS011;71452;52.562;5.642;2024-03-29T10:50:42;0.35;;;0.30;;
81950;SDS011;71452;52.562;5.642;2024-03-29T10:53:09;0.75;;;0.20;;
81950;SDS011;71452;52.562;5.642;2024-03-29T10:58:06;0.20;;;0.20;;
81950;SDS011;71452;52.562;5.642;2024-03-29T11:00:37;1.40;;;0.70;;
81950;SDS011;71452;52.562;5.642;2024-03-29T11:03:07;0.45;;;0.20;;
81950;SDS011;71452;52.562;5.642;2024-03-29T11:05:39;0.10;;;0.10;;
81950;SDS011;71452;52.562;5.642;2024-03-29T11:08:10;0.98;;;0.30;;
81950;SDS011;71452;52.562;5.642;2024-03-29T11:10:39;1.73;;;0.30;;
81950;SDS011;71452;52.562;5.642;2024-03-29T11:13:12;1.25;;;0.15;;
81950;SDS011;71452;52.562;5.642;2024-03-29T11:15:45;1.73;;;0.28;;
81950;SDS011;71452;52.562;5.642;2024-03-29T11:18:13;1.55;;;0.20;;
81950;SDS011;71452;52.562;5.642;2024-03-29T11:20:41;0.10;;;0.10;;
81950;SDS011;71452;52.562;5.642;2024-03-29T11:23:10;0.88;;;0.20;;
81950;SDS011;71452;52.562;5.642;2024-03-29T11:25:39;1.38;;;0.35;;
81950;SDS011;71452;52.562;5.642;2024-03-29T11:28:06;1.23;;;0.30;;
81950;SDS011;71452;52.562;5.642;2024-03-29T11:30:40;0.73;;;0.50;;
81950;SDS011;71452;52.562;5.642;2024-03-29T11:33:07;1.45;;;0.20;;
81950;SDS011;71452;52.562;5.642;2024-03-29T11:35:48;0.52;;;0.22;;
81950;SDS011;71452;52.562;5.642;2024-03-29T11:38:16;0.50;;;0.20;;
81950;SDS011;71452;52.562;5.642;2024-03-29T11:40:52;0.77;;;0.30;;
81950;SDS011;71452;52.562;5.642;2024-03-29T11:43:22;1.90;;;0.25;;
81950;SDS011;71452;52.562;5.642;2024-03-29T11:45:49;2.10;;;0.20;;
81950;SDS011;71452;52.562;5.642;2024-03-29T11:48:17;1.23;;;0.30;;
81950;SDS011;71452;52.562;5.642;2024-03-29T11:50:48;0.73;;;0.32;;
81950;SDS011;71452;52.562;5.642;2024-03-29T11:53:15;0.93;;;0.20;;
81950;SDS011;71452;52.562;5.642;2024-03-29T11:55:41;0.80;;;0.20;;
81950;SDS011;71452;52.562;5.642;2024-03-29T11:58:08;0.47;;;0.10;;
81950;SDS011;71452;52.562;5.642;2024-03-29T12:00:37;0.20;;;0.17;;
81950;SDS011;71452;52.562;5.642;2024-03-29T12:03:05;0.10;;;0.08;;
81950;SDS011;71452;52.562;5.642;2024-03-29T12:05:31;0.40;;;0.20;;
81950;SDS011;71452;52.562;5.642;2024-03-29T12:07:58;2.28;;;0.22;;
81950;SDS011;71452;52.562;5.642;2024-03-29T12:10:26;1.65;;;0.60;;
81950;SDS011;71452;52.562;5.642;2024-03-29T12:12:55;0.38;;;0.20;;
81950;SDS011;71452;52.562;5.642;2024-03-29T12:15:27;0.55;;;0.15;;
81950;SDS011;71452;52.562;5.642;2024-03-29T12:17:56;2.25;;;0.32;;
81950;SDS011;71452;52.562;5.642;2024-03-29T12:20:24;1.70;;;0.30;;
81950;SDS011;71452;52.562;5.642;2024-03-29T12:22:51;0.70;;;0.28;;
81950;SDS011;71452;52.562;5.642;2024-03-29T12:27:46;1.60;;;0.20;;
81950;SDS011;71452;52.562;5.642;2024-03-29T12:30:13;1.70;;;0.50;;
81950;SDS011;71452;52.562;5.642;2024-03-29T12:32:40;0.35;;;0.20;;
81950;SDS011;71452;52.562;5.642;2024-03-29T12:35:12;0.30;;;0.20;;
81950;SDS011;71452;52.562;5.642;2024-03-29T12:37:47;0.40;;;0.30;;
81950;SDS011;71452;52.562;5.642;2024-03-29T12:40:15;1.75;;;0.30;;
81950;SDS011;71452;52.562;5.642;2024-03-29T12:42:42;1.67;;;0.30;;
81950;SDS011;71452;52.562;5.642;2024-03-29T12:45:09;0.30;;;0.20;;
81950;SDS011;71452;52.562;5.642;2024-03-29T12:47:36;1.35;;;0.30;;
81950;SDS011;71452;52.562;5.642;2024-03-29T12:50:03;0.40;;;0.20;;
81950;SDS011;71452;52.562;5.642;2024-03-29T12:52:38;1.48;;;0.40;;
81950;SDS011;71452;52.562;5.642;2024-03-29T12:55:06;0.60;;;0.38;;
81950;SDS011;71452;52.562;5.642;2024-03-29T12:57:33;0.73;;;0.30;;
81950;SDS011;71452;52.562;5.642;2024-03-29T13:00:00;0.40;;;0.32;;
81950;SDS011;71452;52.562;5.642;2024-03-29T13:02:27;1.08;;;0.30;;
81950;SDS011;71452;52.562;5.642;2024-03-29T13:04:53;1.55;;;0.30;;
81950;SDS011;71452;52.562;5.642;2024-03-29T13:07:20;1.40;;;0.28;;
81950;SDS011;71452;52.562;5.642;2024-03-29T13:09:49;1.27;;;0.20;;
81950;SDS011;71452;52.562;5.642;2024-03-29T13:12:15;2.70;;;0.50;;
81950;SDS011;71452;52.562;5.642;2024-03-29T13:14:42;0.63;;;0.30;;
81950;SDS011;71452;52.562;5.642;2024-03-29T13:17:08;0.32;;;0.20;;
81950;SDS011;71452;52.562;5.642;2024-03-29T13:19:35;0.77;;;0.65;;
81950;SDS011;71452;52.562;5.642;2024-03-29T13:22:02;6.40;;;0.30;;
81950;SDS011;71452;52.562;5.642;2024-03-29T13:24:29;0.45;;;0.32;;
81950;SDS011;71452;52.562;5.642;2024-03-29T13:26:58;0.60;;;0.20;;
81950;SDS011;71452;52.562;5.642;2024-03-29T13:29:24;0.32;;;0.28;;
81950;SDS011;71452;52.562;5.642;2024-03-29T13:31:51;0.40;;;0.40;;
81950;SDS011;71452;52.562;5.642;2024-03-29T13:34:17;0.75;;;0.30;;
81950;SDS011;71452;52.562;5.642;2024-03-29T13:36:44;1.65;;;0.30;;
81950;SDS011;71452;52.562;5.642;2024-03-29T13:39:11;1.75;;;0.30;;
81950;SDS011;71452;52.562;5.642;2024-03-29T13:41:37;0.50;;;0.17;;
81950;SDS011;71452;52.562;5.642;2024-03-29T13:44:06;0.80;;;0.22;;
81950;SDS011;71452;52.562;5.642;2024-03-29T13:46:33;3.97;;;0.38;;
81950;SDS011;71452;52.562;5.642;2024-03-29T13:49:00;0.20;;;0.13;;
81950;SDS011;71452;52.562;5.642;2024-03-29T13:51:27;0.22;;;0.13;;
81950;SDS011;71452;52.562;5.642;2024-03-29T13:53:54;0.40;;;0.13;;
81950;SDS011;71452;52.562;5.642;2024-03-29T13:56:20;0.68;;;0.50;;
81950;SDS011;71452;52.562;5.642;2024-03-29T13:58:47;3.40;;;0.82;;
81950;SDS011;71452;52.562;5.642;2024-03-29T14:01:16;0.82;;;0.40;;
81950;SDS011;71452;52.562;5.642;2024-03-29T14:03:43;0.65;;;0.50;;
81950;SDS011;71452;52.562;5.642;2024-03-29T14:06:10;0.95;;;0.50;;
81950;SDS011;71452;52.562;5.642;2024-03-29T14:08:37;0.82;;;0.50;;
81950;SDS011;71452;52.562;5.642;2024-03-29T14:11:03;0.90;;;0.55;;
81950;SDS011;71452;52.562;5.642;2024-03-29T14:13:30;1.52;;;0.75;;
81950;SDS011;71452;52.562;5.642;2024-03-29T14:15:57;1.38;;;0.77;;
81950;SDS011;71452;52.562;5.642;2024-03-29T14:18:27;1.20;;;0.70;;
81950;SDS011;71452;52.562;5.642;2024-03-29T14:20:54;2.53;;;0.80;;
81950;SDS011;71452;52.562;5.642;2024-03-29T14:23:20;1.20;;;0.90;;
81950;SDS011;71452;52.562;5.642;2024-03-29T14:25:47;3.95;;;1.05;;
81950;SDS011;71452;52.562;5.642;2024-03-29T14:28:13;1.23;;;0.80;;
81950;SDS011;71452;52.562;5.642;2024-03-29T14:30:40;2.35;;;1.05;;
81950;SDS011;71452;52.562;5.642;2024-03-29T14:33:06;5.15;;;1.10;;
81950;SDS011;71452;52.562;5.642;2024-03-29T14:35:36;2.50;;;1.00;;
81950;SDS011;71452;52.562;5.642;2024-03-29T14:38:02;2.05;;;1.00;;
81950;SDS011;71452;52.562;5.642;2024-03-29T14:40:29;3.53;;;1.08;;
81950;SDS011;71452;52.562;5.642;2024-03-29T14:42:56;3.08;;;1.35;;
81950;SDS011;71452;52.562;5.642;2024-03-29T14:45:23;1.27;;;1.00;;
81950;SDS011;71452;52.562;5.642;2024-03-29T14:47:50;2.08;;;1.10;;
81950;SDS011;71452;52.562;5.642;2024-03-29T14:50:16;1.50;;;1.17;;
81950;SDS011;71452;52.562;5.642;2024-03-29T14:52:46;1.30;;;1.20;;
81950;SDS011;71452;52.562;5.642;2024-03-29T14:55:13;5.65;;;1.50;;
81950;SDS011;71452;52.562;5.642;2024-03-29T14:57:39;2.20;;;1.23;;
81950;SDS011;71452;52.562;5.642;2024-03-29T15:00:07;1.42;;;1.23;;
81950;SDS011;71452;52.562;5.642;2024-03-29T15:02:34;2.75;;;1.27;;
81950;SDS011;71452;52.562;5.642;2024-03-29T15:05:00;2.80;;;0.90;;